Flight Track Log - Related Links

Times and Time Zones

All times are in EDT time to prevent confusion due to time zone crossing. See the N675MC flight status page for this flight to view local times or setup timezone preferences in your user account.

Time Position Orientation Groundspeed Altitude Reporting Facility
EDT Latitude Longitude Course Direction KTS MPH feet Rate Location/Type
Fri 01:55:32 PM 33.6500 -84.4667 356° North 181 208 2,400  Level Atlanta TRACON
Fri 01:56:27 PM 33.6667 -84.5333 287° West 251 289 3,900 2,035 Climbing Atlanta TRACON
Fri 01:57:27 PM 33.7167 -84.5833 320° Northwest 280 322 6,300 1,914 Climbing Atlanta TRACON
Fri 01:59:00 PM 34.1171 -84.6073 349° North  Level Estimated
Fri 01:59:57 PM 33.9139 -84.6069 354° North 301 346 10,600  Level Atlanta Center
Fri 02:00:00 PM 34.2174 -84.6168 356° North  Level FlightAware Approximate
Fri 02:00:57 PM 34.0161 -84.6153 356° North 335 386 11,900  Level Atlanta Center
Fri 02:01:57 PM 34.1183 -84.6258 355° North 361 415 14,100 1,950 Climbing Atlanta Center
Fri 02:02:57 PM 34.2247 -84.6342 356° North 374 430 15,800 1,900 Climbing Atlanta Center
Fri 02:03:57 PM 34.3314 -84.6400 357° North 383 441 17,900 2,000 Climbing Atlanta Center
Fri 02:04:57 PM 34.4419 -84.6483 356° North 388 447 19,800 1,800 Climbing Atlanta Center
Fri 02:05:57 PM 34.5544 -84.6542 358° North 388 447 21,500 1,400 Climbing Atlanta Center
Fri 02:06:57 PM 34.6547 -84.6650 355° North 393 452 22,600 1,300 Climbing Atlanta Center
Fri 02:07:57 PM 34.7653 -84.6786 354° North 393 452 24,100 1,400 Climbing Atlanta Center
Fri 02:08:57 PM 34.8778 -84.6819 359° North 398 458 25,400 1,250 Climbing Atlanta Center
Fri 02:09:57 PM 34.9947 -84.6903 357° North 405 466 26,600 1,200 Climbing Atlanta Center
Fri 02:10:57 PM 35.1072 -84.7092 352° North 405 466 27,800 700 Climbing Atlanta Center
Fri 02:11:57 PM 35.2261 -84.7328 351° North 416 479 28,000 600 Climbing Atlanta Center
Fri 02:12:57 PM 35.3428 -84.7567 351° North 422 486 29,000 1,250 Climbing Atlanta Center
Fri 02:13:57 PM 35.4553 -84.7833 349° North 422 486 30,500 1,200 Climbing Atlanta Center
Fri 02:14:57 PM 35.5614 -84.8175 345° North 408 470 31,400 800 Climbing Atlanta Center
Fri 02:15:57 PM 35.6697 -84.8567 344° North 403 464 32,100 600 Climbing Atlanta Center
Fri 02:16:57 PM 35.7842 -84.8989 343° North 391 450 32,600 763 Climbing Atlanta Center
Fri 02:17:55 PM 35.8908 -84.9461 340° North 406 467 33,600 700 Climbing Indianapolis Center
Fri 02:18:57 PM 35.9964 -84.9903 341° North 401 461 34,000 194 Climbing Indianapolis Center
Fri 02:19:59 PM 36.1031 -85.0358 341° North 405 466 34,000  Level Indianapolis Center
Fri 02:21:01 PM 36.2161 -85.0686 347° North 412 474 34,000  Level Indianapolis Center
Fri 02:22:03 PM 36.3300 -85.0972 349° North 415 478 34,000  Level Indianapolis Center
Fri 02:23:05 PM 36.4419 -85.1281 348° North 413 475 34,000  Level Indianapolis Center
Fri 02:24:07 PM 36.5775 -85.1672 347° North 416 479 34,000  Level Indianapolis Center
Fri 02:25:09 PM 36.6908 -85.1975 348° North 416 479 34,000  Level Indianapolis Center
Fri 02:26:11 PM 36.8031 -85.2306 347° North 414 476 34,000  Level Indianapolis Center
Fri 02:27:13 PM 36.9156 -85.2628 347° North 414 476 34,000  Level Indianapolis Center
Fri 02:28:15 PM 37.0372 -85.3008 346° North 413 475 34,000  Level Indianapolis Center
Fri 02:29:17 PM 37.1497 -85.3322 347° North 413 475 34,000  Level Indianapolis Center
Fri 02:30:19 PM 37.2622 -85.3628 348° North 413 475 34,000  Level Indianapolis Center
Fri 02:31:21 PM 37.3736 -85.3967 346° North 411 473 34,000  Level Indianapolis Center
Fri 02:32:23 PM 37.4844 -85.4300 347° North 409 471 34,000  Level Indianapolis Center
Fri 02:33:25 PM 37.6158 -85.4647 348° North 410 472 34,000  Level Indianapolis Center
Fri 02:34:27 PM 37.7297 -85.4847 352° North 412 474 34,000  Level Indianapolis Center
Fri 02:35:29 PM 37.8292 -85.5061 350° North 408 470 34,000  Level Indianapolis Center
Fri 02:36:31 PM 37.9661 -85.5356 350° North 411 473 34,000  Level Indianapolis Center
Fri 02:37:33 PM 38.0778 -85.5569 351° North 406 467 34,000  Level Indianapolis Center
Fri 02:38:35 PM 38.1936 -85.5653 357° North 413 475 34,000  Level Indianapolis Center
Fri 02:39:37 PM 38.3081 -85.5731 357° North 413 475 34,000  Level Indianapolis Center
Fri 02:40:39 PM 38.4219 -85.5839 356° North 411 473 34,000  Level Indianapolis Center
Fri 02:41:41 PM 38.5353 -85.5950 356° North 409 471 34,000  Level Indianapolis Center
Fri 02:42:44 PM 38.6647 -85.6031 357° North 412 474 34,000 -144 Level Indianapolis Center
Fri 02:43:46 PM 38.7767 -85.6136 356° North 406 467 33,700 -581 Descending Indianapolis Center
Fri 02:44:48 PM 38.8878 -85.6247 356° North 402 463 32,800 -823 Descending Indianapolis Center
Fri 02:45:50 PM 38.9958 -85.6372 355° North 394 453 32,000 -919 Descending Indianapolis Center
Fri 02:46:52 PM 39.1219 -85.6544 354° North 384 442 30,900 -919 Descending Indianapolis Center
Fri 02:47:54 PM 39.2292 -85.6728 352° North 388 447 30,100 -823 Descending Indianapolis Center
Fri 02:48:56 PM 39.3383 -85.6858 355° North 394 453 29,200 -532 Descending Indianapolis Center
Fri 02:49:58 PM 39.4503 -85.6953 356° North 404 465 29,000 -97 Descending Indianapolis Center
Fri 02:51:00 PM 39.5633 -85.6875 North 410 472 29,000  Level Indianapolis Center
Fri 02:52:02 PM 39.7006 -85.6831 North 414 476 29,000  Level Indianapolis Center
Fri 02:53:04 PM 39.8150 -85.6747 North 415 478 29,000 -194 Level Indianapolis Center
Fri 02:54:06 PM 39.9292 -85.6667 North 415 478 28,600 -919 Descending Indianapolis Center
Fri 02:55:08 PM 40.0392 -85.6883 351° North 411 473 27,100 -1,210 Descending Indianapolis Center
Fri 02:56:10 PM 40.1342 -85.7644 329° Northwest 408 470 26,100 -532 Descending Indianapolis Center
Fri 02:57:12 PM 40.2511 -85.8592 328° Northwest 413 475 26,000 -242 Descending Indianapolis Center
Fri 02:58:14 PM 40.3500 -85.9358 329° Northwest 418 481 25,600 -629 Descending Chicago Center
Fri 02:59:16 PM 40.4506 -86.0153 329° Northwest 423 487 24,700 -919 Descending Chicago Center
Fri 03:00:18 PM 40.5250 -86.1242 312° West 407 468 23,700 -1,016 Descending Chicago Center
Fri 03:01:20 PM 40.5956 -86.2417 308° West 412 474 22,600 -823 Descending Chicago Center
Fri 03:02:22 PM 40.6758 -86.3839 307° West 406 467 22,000 -290 Descending Chicago Center
Fri 03:03:24 PM 40.7453 -86.5022 308° West 404 465 22,000 -97 Level Chicago Center
Fri 03:04:26 PM 40.8206 -86.6169 311° West 412 474 21,800 -726 Descending Chicago Center
Fri 03:05:28 PM 40.9056 -86.7394 313° West 409 471 20,500 -1,306 Descending Chicago Center
Fri 03:06:30 PM 40.9914 -86.8206 325° Northwest 383 441 19,100 -1,306 Descending Chicago Center
Fri 03:07:32 PM 41.0725 -86.9003 323° Northwest 368 423 17,800 -1,258 Descending Chicago Center
Fri 03:08:34 PM 41.1506 -86.9783 323° Northwest 356 410 16,500 -1,344 Descending Chicago Center
Fri 03:09:37 PM 41.2247 -87.0575 321° Northwest 346 398 15,000 -1,440 Descending Chicago Center
Fri 03:10:39 PM 41.3111 -87.1461 322° Northwest 333 383 13,500 -1,597 Descending Chicago Center
Fri 03:11:41 PM 41.3869 -87.2228 323° Northwest 342 394 11,700 -1,210 Descending Chicago Center
Fri 03:12:43 PM 41.4614 -87.2981 323° Northwest 340 391 11,000 -339 Descending Chicago Center
Fri 03:13:45 PM 41.5358 -87.3711 324° Northwest 336 387 11,000 -48 Level Chicago Center
Fri 03:14:47 PM 41.6067 -87.4425 323° Northwest 326 375 10,900 -823 Descending Chicago Center
Fri 03:15:49 PM 41.6753 -87.5147 322° Northwest 266 306 9,300 -1,597 Descending Chicago Center
Fri 03:16:51 PM 41.7289 -87.5814 317° Northwest 263 303 7,600 -1,113 Descending Chicago Center
Fri 03:17:53 PM 41.7814 -87.6536 314° West 269 310 7,000 -290 Descending Chicago Center
Fri 03:18:55 PM 41.8117 -87.7358 296° West 269 310 7,000  Level Chicago Center
Fri 03:19:57 PM 41.7969 -87.8403 259° West 248 285 7,000 -290 Level Chicago Center
Fri 03:20:59 PM 41.7736 -87.9272 250° West 250 288 6,400 -864 Descending Chicago Center
Fri 03:22:02 PM 41.7619 -88.0075 259° West 236 272 5,200 -1,104 Descending Chicago Center
Fri 03:23:04 PM 41.8061 -88.0539 322° Northwest 227 261 4,100 -1,016 Descending Chicago Center
Fri 03:24:06 PM 41.8531 -88.0167 31° Northeast 210 242 3,100 -1,010 Descending Chicago Center
Fri 03:24:45 PM 41.8833 -87.9833 39° Northeast 180 207 2,400 -970 Descending Chicago TRACON
Fri 03:25:45 PM 41.9167 -87.9333 48° Northeast 161 185 1,500 -800 Descending Chicago TRACON
Fri 03:26:45 PM 41.9500 -87.9000 37° Northeast 136 157 800 -700 Descending Chicago TRACON

Login

Don't have an account? Register now (free) for customized features, flight alerts, and more!